sensor_id;sensor_type;location;lat;lon;timestamp;pressure;altitude;pressure_sealevel;temperature;humidity
51299;BME280;37382;45.192;9.790;2023-06-14T04:07:57;100579.34;;;20.94;100.00
51299;BME280;37382;45.192;9.790;2023-06-14T04:10:31;100586.31;;;21.12;100.00
51299;BME280;37382;45.192;9.790;2023-06-14T04:12:59;100585.16;;;20.97;100.00
51299;BME280;37382;45.192;9.790;2023-06-14T04:15:26;100590.13;;;20.95;100.00
51299;BME280;37382;45.192;9.790;2023-06-14T04:17:58;100587.38;;;20.95;100.00
51299;BME280;37382;45.192;9.790;2023-06-14T04:20:26;100587.09;;;21.02;100.00
51299;BME280;37382;45.192;9.790;2023-06-14T04:22:53;100585.50;;;21.22;100.00
51299;BME280;37382;45.192;9.790;2023-06-14T04:25:21;100592.72;;;21.33;100.00
51299;BME280;37382;45.192;9.790;2023-06-14T04:27:51;100591.91;;;21.32;100.00
51299;BME280;37382;45.192;9.790;2023-06-14T04:30:21;100597.69;;;21.26;100.00
51299;BME280;37382;45.192;9.790;2023-06-14T04:32:55;100591.59;;;21.24;100.00
51299;BME280;37382;45.192;9.790;2023-06-14T04:35:23;100588.00;;;21.28;100.00
51299;BME280;37382;45.192;9.790;2023-06-14T04:37:52;100594.63;;;21.17;100.00
51299;BME280;37382;45.192;9.790;2023-06-14T04:40:21;100594.19;;;21.56;100.00
51299;BME280;37382;45.192;9.790;2023-06-14T04:42:48;100596.56;;;21.17;100.00
51299;BME280;37382;45.192;9.790;2023-06-14T04:45:19;100590.22;;;21.26;100.00
51299;BME280;37382;45.192;9.790;2023-06-14T04:47:49;100589.69;;;21.35;100.00
51299;BME280;37382;45.192;9.790;2023-06-14T04:50:20;100589.72;;;21.40;100.00
51299;BME280;37382;45.192;9.790;2023-06-14T04:52:48;100593.25;;;21.25;100.00
51299;BME280;37382;45.192;9.790;2023-06-14T04:55:19;100599.69;;;21.51;100.00
51299;BME280;37382;45.192;9.790;2023-06-14T04:57:47;100596.91;;;21.46;100.00
51299;BME280;37382;45.192;9.790;2023-06-14T05:00:15;100597.97;;;21.24;100.00
51299;BME280;37382;45.192;9.790;2023-06-14T05:02:43;100599.34;;;21.17;100.00
51299;BME280;37382;45.192;9.790;2023-06-14T05:05:12;100593.81;;;21.17;100.00
51299;BME280;37382;45.192;9.790;2023-06-14T05:07:41;100602.94;;;21.17;100.00
51299;BME280;37382;45.192;9.790;2023-06-14T05:10:09;100605.72;;;21.27;100.00
51299;BME280;37382;45.192;9.790;2023-06-14T05:12:37;100607.09;;;21.20;100.00
51299;BME280;37382;45.192;9.790;2023-06-14T05:15:08;100609.56;;;21.16;100.00
51299;BME280;37382;45.192;9.790;2023-06-14T05:17:37;100609.38;;;21.48;100.00
51299;BME280;37382;45.192;9.790;2023-06-14T05:20:07;100606.31;;;21.45;100.00
51299;BME280;37382;45.192;9.790;2023-06-14T05:22:37;100611.88;;;21.60;100.00
51299;BME280;37382;45.192;9.790;2023-06-14T05:25:05;100613.03;;;21.90;100.00
51299;BME280;37382;45.192;9.790;2023-06-14T05:27:33;100618.25;;;21.50;100.00
51299;BME280;37382;45.192;9.790;2023-06-14T05:30:03;100613.03;;;21.59;100.00
51299;BME280;37382;45.192;9.790;2023-06-14T05:32:31;100613.56;;;21.61;100.00
51299;BME280;37382;45.192;9.790;2023-06-14T05:34:58;100624.66;;;22.02;100.00
51299;BME280;37382;45.192;9.790;2023-06-14T05:37:25;100617.75;;;22.05;100.00
51299;BME280;37382;45.192;9.790;2023-06-14T05:39:53;100624.94;;;22.32;100.00
51299;BME280;37382;45.192;9.790;2023-06-14T05:42:20;100625.22;;;21.94;100.00
51299;BME280;37382;45.192;9.790;2023-06-14T05:44:47;100627.97;;;22.20;100.00
51299;BME280;37382;45.192;9.790;2023-06-14T05:47:16;100627.16;;;21.73;100.00
51299;BME280;37382;45.192;9.790;2023-06-14T05:49:44;100627.97;;;21.99;100.00
51299;BME280;37382;45.192;9.790;2023-06-14T05:52:12;100624.94;;;22.01;100.00
51299;BME280;37382;45.192;9.790;2023-06-14T05:54:40;100624.66;;;21.87;100.00
51299;BME280;37382;45.192;9.790;2023-06-14T05:57:08;100623.56;;;21.93;100.00
51299;BME280;37382;45.192;9.790;2023-06-14T05:59:35;100632.44;;;21.85;100.00
51299;BME280;37382;45.192;9.790;2023-06-14T06:02:03;100639.63;;;22.12;100.00
51299;BME280;37382;45.192;9.790;2023-06-14T06:04:31;100637.41;;;22.19;100.00
51299;BME280;37382;45.192;9.790;2023-06-14T06:06:58;100644.31;;;22.16;100.00
51299;BME280;37382;45.192;9.790;2023-06-14T06:09:26;100640.16;;;21.98;100.00
51299;BME280;37382;45.192;9.790;2023-06-14T06:11:54;100646.25;;;22.11;100.00
51299;BME280;37382;45.192;9.790;2023-06-14T06:14:22;100647.38;;;21.94;100.00
51299;BME280;37382;45.192;9.790;2023-06-14T06:16:50;100645.19;;;22.32;100.00
51299;BME280;37382;45.192;9.790;2023-06-14T06:19:19;100644.88;;;22.08;100.00
51299;BME280;37382;45.192;9.790;2023-06-14T06:21:47;100652.34;;;22.44;100.00
51299;BME280;37382;45.192;9.790;2023-06-14T06:24:15;100655.94;;;22.44;100.00
51299;BME280;37382;45.192;9.790;2023-06-14T06:26:42;100651.25;;;22.50;100.00
51299;BME280;37382;45.192;9.790;2023-06-14T06:29:10;100657.03;;;22.53;100.00
51299;BME280;37382;45.192;9.790;2023-06-14T06:31:39;100656.19;;;22.68;100.00
51299;BME280;37382;45.192;9.790;2023-06-14T06:34:07;100657.03;;;22.64;100.00
51299;BME280;37382;45.192;9.790;2023-06-14T06:36:35;100653.41;;;22.68;100.00
51299;BME280;37382;45.192;9.790;2023-06-14T06:39:04;100657.81;;;22.85;100.00
51299;BME280;37382;45.192;9.790;2023-06-14T06:41:38;100659.47;;;22.81;100.00
51299;BME280;37382;45.192;9.790;2023-06-14T06:44:07;100660.03;;;22.78;100.00
51299;BME280;37382;45.192;9.790;2023-06-14T06:46:39;100666.16;;;22.80;100.00
51299;BME280;37382;45.192;9.790;2023-06-14T06:49:09;100667.53;;;22.77;100.00
51299;BME280;37382;45.192;9.790;2023-06-14T06:51:41;100673.38;;;22.70;100.00
51299;BME280;37382;45.192;9.790;2023-06-14T06:54:10;100672.81;;;22.68;100.00
51299;BME280;37382;45.192;9.790;2023-06-14T06:56:37;100676.75;;;22.57;100.00
51299;BME280;37382;45.192;9.790;2023-06-14T06:59:05;100674.72;;;22.88;100.00
51299;BME280;37382;45.192;9.790;2023-06-14T07:01:33;100673.59;;;22.89;100.00
51299;BME280;37382;45.192;9.790;2023-06-14T07:04:01;100676.34;;;23.00;100.00
51299;BME280;37382;45.192;9.790;2023-06-14T07:06:30;100676.28;;;23.25;100.00
51299;BME280;37382;45.192;9.790;2023-06-14T07:08:57;100679.16;;;22.89;100.00
51299;BME280;37382;45.192;9.790;2023-06-14T07:11:29;100687.75;;;22.88;100.00
51299;BME280;37382;45.192;9.790;2023-06-14T07:13:57;100678.81;;;23.17;100.00
51299;BME280;37382;45.192;9.790;2023-06-14T07:16:25;100685.38;;;23.31;100.00
51299;BME280;37382;45.192;9.790;2023-06-14T07:18:53;100686.44;;;23.45;100.00
51299;BME280;37382;45.192;9.790;2023-06-14T07:21:20;100685.22;;;23.07;100.00
51299;BME280;37382;45.192;9.790;2023-06-14T07:23:48;100687.09;;;23.22;100.00
51299;BME280;37382;45.192;9.790;2023-06-14T07:26:15;100691.06;;;22.90;100.00
51299;BME280;37382;45.192;9.790;2023-06-14T07:28:43;100692.66;;;23.22;100.00
51299;BME280;37382;45.192;9.790;2023-06-14T07:31:13;100699.66;;;23.09;100.00
51299;BME280;37382;45.192;9.790;2023-06-14T07:33:41;100696.88;;;23.04;100.00
51299;BME280;37382;45.192;9.790;2023-06-14T07:36:09;100699.38;;;22.90;100.00
51299;BME280;37382;45.192;9.790;2023-06-14T07:38:37;100701.59;;;22.98;100.00
51299;BME280;37382;45.192;9.790;2023-06-14T07:41:05;100695.84;;;22.74;100.00
51299;BME280;37382;45.192;9.790;2023-06-14T07:43:32;100708.06;;;22.58;100.00
51299;BME280;37382;45.192;9.790;2023-06-14T07:46:00;100703.38;;;22.58;100.00
51299;BME280;37382;45.192;9.790;2023-06-14T07:48:34;100708.06;;;22.63;100.00
51299;BME280;37382;45.192;9.790;2023-06-14T07:51:02;100708.28;;;22.87;100.00
51299;BME280;37382;45.192;9.790;2023-06-14T07:53:30;100705.81;;;22.75;100.00
51299;BME280;37382;45.192;9.790;2023-06-14T07:56:00;100705.84;;;22.44;100.00
51299;BME280;37382;45.192;9.790;2023-06-14T07:58:28;100710.00;;;22.36;100.00
51299;BME280;37382;45.192;9.790;2023-06-14T08:00:56;100715.81;;;22.19;100.00
51299;BME280;37382;45.192;9.790;2023-06-14T08:03:24;100714.41;;;22.27;100.00
51299;BME280;37382;45.192;9.790;2023-06-14T08:05:51;100714.44;;;22.22;100.00
51299;BME280;37382;45.192;9.790;2023-06-14T08:08:19;100722.19;;;22.30;100.00
51299;BME280;37382;45.192;9.790;2023-06-14T08:10:47;100721.66;;;22.38;100.00
51299;BME280;37382;45.192;9.790;2023-06-14T08:13:14;100723.56;;;22.17;100.00
51299;BME280;37382;45.192;9.790;2023-06-14T08:15:42;100722.22;;;22.51;100.00
51299;BME280;37382;45.192;9.790;2023-06-14T08:18:09;100730.50;;;22.25;100.00
51299;BME280;37382;45.192;9.790;2023-06-14T08:20:37;100732.72;;;22.28;100.00
51299;BME280;37382;45.192;9.790;2023-06-14T08:23:05;100734.13;;;22.36;100.00
51299;BME280;37382;45.192;9.790;2023-06-14T08:25:33;100739.69;;;22.46;100.00
51299;BME280;37382;45.192;9.790;2023-06-14T08:28:00;100736.91;;;22.46;100.00
51299;BME280;37382;45.192;9.790;2023-06-14T08:30:27;100746.31;;;22.45;100.00
51299;BME280;37382;45.192;9.790;2023-06-14T08:32:55;100749.66;;;22.58;100.00
51299;BME280;37382;45.192;9.790;2023-06-14T08:35:42;100753.50;;;22.82;100.00
51299;BME280;37382;45.192;9.790;2023-06-14T08:38:10;100755.44;;;22.71;100.00
51299;BME280;37382;45.192;9.790;2023-06-14T08:40:41;100761.03;;;22.61;100.00
51299;BME280;37382;45.192;9.790;2023-06-14T08:43:09;100763.22;;;22.69;100.00
51299;BME280;37382;45.192;9.790;2023-06-14T08:45:37;100750.75;;;22.72;100.00
51299;BME280;37382;45.192;9.790;2023-06-14T08:48:06;100767.94;;;22.74;100.00
51299;BME280;37382;45.192;9.790;2023-06-14T08:50:36;100771.78;;;22.88;100.00
51299;BME280;37382;45.192;9.790;2023-06-14T08:53:08;100763.16;;;23.21;100.00
51299;BME280;37382;45.192;9.790;2023-06-14T08:55:38;100765.69;;;22.91;100.00
51299;BME280;37382;45.192;9.790;2023-06-14T08:58:09;100767.38;;;22.98;100.00
51299;BME280;37382;45.192;9.790;2023-06-14T09:00:42;100773.16;;;23.01;100.00
51299;BME280;37382;45.192;9.790;2023-06-14T09:03:10;100769.56;;;22.96;100.00
51299;BME280;37382;45.192;9.790;2023-06-14T09:05:41;100772.06;;;22.92;100.00
51299;BME280;37382;45.192;9.790;2023-06-14T09:08:08;100772.66;;;22.73;100.00
51299;BME280;37382;45.192;9.790;2023-06-14T09:10:39;100776.50;;;22.93;100.00
51299;BME280;37382;45.192;9.790;2023-06-14T09:13:08;100774.00;;;23.07;100.00
51299;BME280;37382;45.192;9.790;2023-06-14T09:15:37;100781.78;;;23.15;100.00
51299;BME280;37382;45.192;9.790;2023-06-14T09:18:04;100767.00;;;23.40;100.00
51299;BME280;37382;45.192;9.790;2023-06-14T09:20:33;100773.41;;;23.31;100.00
51299;BME280;37382;45.192;9.790;2023-06-14T09:23:01;100773.41;;;23.31;100.00
51299;BME280;37382;45.192;9.790;2023-06-14T09:25:32;100777.03;;;23.21;100.00
51299;BME280;37382;45.192;9.790;2023-06-14T09:28:07;100777.63;;;23.02;100.00
51299;BME280;37382;45.192;9.790;2023-06-14T09:30:37;100776.69;;;23.48;100.00
51299;BME280;37382;45.192;9.790;2023-06-14T09:33:05;100778.31;;;23.54;100.00
51299;BME280;37382;45.192;9.790;2023-06-14T09:35:34;100774.56;;;23.90;100.00
51299;BME280;37382;45.192;9.790;2023-06-14T09:38:03;100782.03;;;23.84;100.00
51299;BME280;37382;45.192;9.790;2023-06-14T09:40:34;100773.50;;;23.70;100.00
51299;BME280;37382;45.192;9.790;2023-06-14T09:43:05;100776.22;;;23.86;100.00
51299;BME280;37382;45.192;9.790;2023-06-14T09:45:34;100778.72;;;23.87;100.00
51299;BME280;37382;45.192;9.790;2023-06-14T09:48:02;100774.03;;;23.88;100.00
51299;BME280;37382;45.192;9.790;2023-06-14T09:50:34;100779.84;;;24.31;100.00
51299;BME280;37382;45.192;9.790;2023-06-14T09:53:06;100778.38;;;24.39;100.00
51299;BME280;37382;45.192;9.790;2023-06-14T09:55:36;100772.31;;;24.31;100.00
51299;BME280;37382;45.192;9.790;2023-06-14T09:58:05;100779.66;;;24.57;100.00
51299;BME280;37382;45.192;9.790;2023-06-14T10:00:36;100782.19;;;24.53;100.00
51299;BME280;37382;45.192;9.790;2023-06-14T10:03:14;100772.84;;;24.73;100.00
51299;BME280;37382;45.192;9.790;2023-06-14T10:05:45;100774.38;;;24.90;100.00
51299;BME280;37382;45.192;9.790;2023-06-14T10:08:16;100774.50;;;24.40;100.00
51299;BME280;37382;45.192;9.790;2023-06-14T10:10:45;100780.81;;;25.09;100.00
51299;BME280;37382;45.192;9.790;2023-06-14T10:13:14;100773.59;;;24.84;100.00
51299;BME280;37382;45.192;9.790;2023-06-14T10:16:07;100771.69;;;25.33;100.00
51299;BME280;37382;45.192;9.790;2023-06-14T10:18:42;100771.94;;;25.36;100.00
51299;BME280;37382;45.192;9.790;2023-06-14T10:24:30;100761.16;;;25.73;100.00
51299;BME280;37382;45.192;9.790;2023-06-14T10:26:59;100753.25;;;25.80;100.00
51299;BME280;37382;45.192;9.790;2023-06-14T10:29:28;100758.09;;;25.50;100.00
51299;BME280;37382;45.192;9.790;2023-06-14T10:32:00;100762.53;;;25.27;100.00
51299;BME280;37382;45.192;9.790;2023-06-14T10:34:30;100754.59;;;25.64;100.00
51299;BME280;37382;45.192;9.790;2023-06-14T10:37:07;100751.59;;;25.60;100.00
51299;BME280;37382;45.192;9.790;2023-06-14T10:39:45;100748.38;;;25.72;100.00
51299;BME280;37382;45.192;9.790;2023-06-14T10:42:13;100755.44;;;25.64;100.00
51299;BME280;37382;45.192;9.790;2023-06-14T10:44:51;100749.53;;;25.47;100.00
51299;BME280;37382;45.192;9.790;2023-06-14T10:49:53;100735.97;;;26.02;100.00
51299;BME280;37382;45.192;9.790;2023-06-14T10:52:27;100737.63;;;26.22;100.00
51299;BME280;37382;45.192;9.790;2023-06-14T10:55:01;100733.06;;;26.26;100.00
51299;BME280;37382;45.192;9.790;2023-06-14T11:00:20;100731.59;;;26.15;100.00
51299;BME280;37382;45.192;9.790;2023-06-14T11:05:27;100735.44;;;25.81;100.00
51299;BME280;37382;45.192;9.790;2023-06-14T11:10:39;100723.78;;;25.98;100.00
51299;BME280;37382;45.192;9.790;2023-06-14T11:13:07;100724.63;;;26.32;100.00
51299;BME280;37382;45.192;9.790;2023-06-14T11:15:37;100718.16;;;26.17;100.00
51299;BME280;37382;45.192;9.790;2023-06-14T11:18:08;100723.13;;;26.20;100.00
51299;BME280;37382;45.192;9.790;2023-06-14T11:20:39;100717.59;;;26.01;100.00
51299;BME280;37382;45.192;9.790;2023-06-14T11:23:07;100715.22;;;26.60;100.00
51299;BME280;37382;45.192;9.790;2023-06-14T11:25:35;100721.78;;;26.70;100.00
51299;BME280;37382;45.192;9.790;2023-06-14T11:28:02;100721.34;;;26.76;100.00
51299;BME280;37382;45.192;9.790;2023-06-14T11:30:30;100707.66;;;26.61;100.00
51299;BME280;37382;45.192;9.790;2023-06-14T11:32:58;100716.22;;;26.64;100.00
51299;BME280;37382;45.192;9.790;2023-06-14T11:35:26;100708.88;;;27.02;100.00
51299;BME280;37382;45.192;9.790;2023-06-14T11:37:55;100701.31;;;26.88;100.00
51299;BME280;37382;45.192;9.790;2023-06-14T11:40:25;100704.00;;;27.07;100.00
51299;BME280;37382;45.192;9.790;2023-06-14T11:43:00;100695.31;;;26.95;100.00
51299;BME280;37382;45.192;9.790;2023-06-14T11:45:29;100698.53;;;26.88;100.00
51299;BME280;37382;45.192;9.790;2023-06-14T11:47:58;100697.09;;;26.91;100.00
51299;BME280;37382;45.192;9.790;2023-06-14T11:50:27;100691.28;;;26.87;100.00
51299;BME280;37382;45.192;9.790;2023-06-14T11:52:59;100696.66;;;27.39;100.00
51299;BME280;37382;45.192;9.790;2023-06-14T11:55:37;100699.97;;;26.86;100.00
51299;BME280;37382;45.192;9.790;2023-06-14T11:58:06;100696.97;;;27.38;100.00
51299;BME280;37382;45.192;9.790;2023-06-14T12:00:35;100684.25;;;27.45;100.00
51299;BME280;37382;45.192;9.790;2023-06-14T12:03:04;100682.94;;;27.43;100.00
51299;BME280;37382;45.192;9.790;2023-06-14T12:05:33;100686.31;;;27.54;100.00
51299;BME280;37382;45.192;9.790;2023-06-14T12:08:04;100677.75;;;27.86;100.00
51299;BME280;37382;45.192;9.790;2023-06-14T12:10:41;100682.66;;;28.57;100.00
51299;BME280;37382;45.192;9.790;2023-06-14T12:13:10;100677.13;;;28.98;100.00
51299;BME280;37382;45.192;9.790;2023-06-14T12:15:39;100669.53;;;29.56;100.00
51299;BME280;37382;45.192;9.790;2023-06-14T12:18:06;100670.66;;;29.28;100.00
51299;BME280;37382;45.192;9.790;2023-06-14T12:20:35;100670.03;;;29.58;100.00
51299;BME280;37382;45.192;9.790;2023-06-14T12:23:04;100669.53;;;30.17;96.15
51299;BME280;37382;45.192;9.790;2023-06-14T12:25:34;100662.63;;;29.88;97.98
51299;BME280;37382;45.192;9.790;2023-06-14T12:28:07;100660.09;;;29.25;97.09
51299;BME280;37382;45.192;9.790;2023-06-14T12:30:36;100660.63;;;29.62;97.49
51299;BME280;37382;45.192;9.790;2023-06-14T12:33:05;100657.63;;;29.24;97.95
51299;BME280;37382;45.192;9.790;2023-06-14T12:35:33;100648.03;;;29.25;94.78
51299;BME280;37382;45.192;9.790;2023-06-14T12:38:01;100659.59;;;28.52;96.39
51299;BME280;37382;45.192;9.790;2023-06-14T12:40:30;100660.78;;;28.28;100.00
51299;BME280;37382;45.192;9.790;2023-06-14T12:42:57;100660.16;;;28.31;100.00
51299;BME280;37382;45.192;9.790;2023-06-14T12:45:25;100661.28;;;27.85;100.00
51299;BME280;37382;45.192;9.790;2023-06-14T12:47:52;100661.03;;;28.40;100.00
51299;BME280;37382;45.192;9.790;2023-06-14T12:50:20;100659.28;;;27.99;99.33
51299;BME280;37382;45.192;9.790;2023-06-14T12:52:52;100663.84;;;27.59;99.90
51299;BME280;37382;45.192;9.790;2023-06-14T12:55:20;100651.06;;;27.66;100.00
51299;BME280;37382;45.192;9.790;2023-06-14T12:57:47;100655.75;;;28.39;99.44
51299;BME280;37382;45.192;9.790;2023-06-14T13:00:17;100652.22;;;28.96;99.20
51299;BME280;37382;45.192;9.790;2023-06-14T13:02:46;100644.34;;;29.91;95.63
51299;BME280;37382;45.192;9.790;2023-06-14T13:05:14;100648.69;;;29.22;92.79
51299;BME280;37382;45.192;9.790;2023-06-14T13:07:43;100648.25;;;29.46;88.44
51299;BME280;37382;45.192;9.790;2023-06-14T13:10:11;100642.97;;;29.36;91.80
51299;BME280;37382;45.192;9.790;2023-06-14T13:12:39;100636.69;;;29.21;89.08
51299;BME280;37382;45.192;9.790;2023-06-14T13:15:08;100648.41;;;28.83;92.10
51299;BME280;37382;45.192;9.790;2023-06-14T13:17:36;100638.84;;;29.33;92.16
51299;BME280;37382;45.192;9.790;2023-06-14T13:20:06;100629.13;;;29.92;91.09
51299;BME280;37382;45.192;9.790;2023-06-14T13:22:35;100627.81;;;30.63;86.85
51299;BME280;37382;45.192;9.790;2023-06-14T13:25:04;100629.94;;;30.19;84.68
51299;BME280;37382;45.192;9.790;2023-06-14T13:27:37;100627.47;;;29.99;85.19
51299;BME280;37382;45.192;9.790;2023-06-14T13:30:06;100631.88;;;30.44;81.01
51299;BME280;37382;45.192;9.790;2023-06-14T13:32:34;100622.69;;;31.03;78.28
51299;BME280;37382;45.192;9.790;2023-06-14T13:35:02;100623.38;;;30.62;77.59
51299;BME280;37382;45.192;9.790;2023-06-14T13:37:31;100621.78;;;31.42;76.83
51299;BME280;37382;45.192;9.790;2023-06-14T13:39:59;100613.81;;;31.44;70.26
51299;BME280;37382;45.192;9.790;2023-06-14T13:42:27;100618.63;;;32.19;67.80
51299;BME280;37382;45.192;9.790;2023-06-14T13:44:55;100617.13;;;32.00;68.91
51299;BME280;37382;45.192;9.790;2023-06-14T13:47:22;100616.16;;;32.17;68.95
51299;BME280;37382;45.192;9.790;2023-06-14T13:49:50;100604.91;;;32.17;70.57
51299;BME280;37382;45.192;9.790;2023-06-14T13:52:17;100605.31;;;33.14;65.84
51299;BME280;37382;45.192;9.790;2023-06-14T13:54:46;100605.94;;;32.95;65.04
51299;BME280;37382;45.192;9.790;2023-06-14T13:57:16;100606.28;;;31.78;66.19
51299;BME280;37382;45.192;9.790;2023-06-14T13:59:44;100601.69;;;31.73;68.09
51299;BME280;37382;45.192;9.790;2023-06-14T14:02:12;100593.88;;;31.79;69.01
51299;BME280;37382;45.192;9.790;2023-06-14T14:04:40;100596.97;;;32.32;67.66
51299;BME280;37382;45.192;9.790;2023-06-14T14:07:08;100596.72;;;31.91;67.84
51299;BME280;37382;45.192;9.790;2023-06-14T14:09:36;100593.19;;;32.15;66.68
51299;BME280;37382;45.192;9.790;2023-06-14T14:12:05;100597.25;;;31.72;68.19
51299;BME280;37382;45.192;9.790;2023-06-14T14:14:32;100596.66;;;30.47;70.80
51299;BME280;37382;45.192;9.790;2023-06-14T14:17:00;100604.53;;;30.06;71.57
51299;BME280;37382;45.192;9.790;2023-06-14T14:19:28;100594.34;;;29.93;74.18
51299;BME280;37382;45.192;9.790;2023-06-14T14:21:55;100592.78;;;30.22;68.69
51299;BME280;37382;45.192;9.790;2023-06-14T14:24:23;100593.34;;;29.71;69.11
51299;BME280;37382;45.192;9.790;2023-06-14T14:26:51;100592.16;;;29.72;70.25
51299;BME280;37382;45.192;9.790;2023-06-14T14:29:20;100596.66;;;30.85;68.07
51299;BME280;37382;45.192;9.790;2023-06-14T14:31:50;100590.16;;;31.45;63.79
51299;BME280;37382;45.192;9.790;2023-06-14T14:34:18;100585.31;;;32.67;57.49
51299;BME280;37382;45.192;9.790;2023-06-14T14:36:47;100579.34;;;33.33;60.70
51299;BME280;37382;45.192;9.790;2023-06-14T14:39:14;100579.97;;;33.55;60.48
51299;BME280;37382;45.192;9.790;2023-06-14T14:41:42;100581.75;;;32.94;59.61
51299;BME280;37382;45.192;9.790;2023-06-14T14:44:10;100578.59;;;31.67;61.10
51299;BME280;37382;45.192;9.790;2023-06-14T14:46:38;100575.63;;;31.43;63.17
51299;BME280;37382;45.192;9.790;2023-06-14T14:49:06;100576.03;;;29.87;67.26
51299;BME280;37382;45.192;9.790;2023-06-14T14:51:33;100580.78;;;30.60;67.42
51299;BME280;37382;45.192;9.790;2023-06-14T14:54:01;100575.69;;;31.76;66.38
51299;BME280;37382;45.192;9.790;2023-06-14T14:56:28;100580.59;;;31.79;63.38
51299;BME280;37382;45.192;9.790;2023-06-14T14:58:56;100576.22;;;32.49;62.49
51299;BME280;37382;45.192;9.790;2023-06-14T15:01:25;100571.22;;;32.67;61.33
51299;BME280;37382;45.192;9.790;2023-06-14T15:03:52;100570.75;;;34.15;58.32
51299;BME280;37382;45.192;9.790;2023-06-14T15:06:26;100574.41;;;36.32;52.98
51299;BME280;37382;45.192;9.790;2023-06-14T15:08:54;100576.25;;;34.24;54.58
51299;BME280;37382;45.192;9.790;2023-06-14T15:11:21;100573.88;;;33.53;58.95
51299;BME280;37382;45.192;9.790;2023-06-14T15:13:49;100574.75;;;34.14;56.99
51299;BME280;37382;45.192;9.790;2023-06-14T15:16:17;100583.81;;;35.35;54.25
51299;BME280;37382;45.192;9.790;2023-06-14T15:18:44;100575.09;;;34.25;56.68
51299;BME280;37382;45.192;9.790;2023-06-14T15:21:13;100580.41;;;32.18;59.11
51299;BME280;37382;45.192;9.790;2023-06-14T15:23:40;100574.94;;;32.00;60.48
51299;BME280;37382;45.192;9.790;2023-06-14T15:26:08;100577.59;;;32.18;61.23
51299;BME280;37382;45.192;9.790;2023-06-14T15:28:35;100568.59;;;31.91;61.32
51299;BME280;37382;45.192;9.790;2023-06-14T15:31:05;100562.53;;;31.68;61.13
51299;BME280;37382;45.192;9.790;2023-06-14T15:33:33;100556.50;;;32.24;60.35
51299;BME280;37382;45.192;9.790;2023-06-14T15:36:00;100563.59;;;32.09;60.60
51299;BME280;37382;45.192;9.790;2023-06-14T15:38:28;100558.38;;;32.32;61.12
51299;BME280;37382;45.192;9.790;2023-06-14T15:40:56;100562.53;;;31.26;61.93
51299;BME280;37382;45.192;9.790;2023-06-14T15:43:23;100565.34;;;31.04;61.93
51299;BME280;37382;45.192;9.790;2023-06-14T15:45:51;100564.13;;;31.35;61.99
51299;BME280;37382;45.192;9.790;2023-06-14T15:48:19;100554.41;;;30.52;66.58
51299;BME280;37382;45.192;9.790;2023-06-14T15:50:47;100563.34;;;29.89;70.34
51299;BME280;37382;45.192;9.790;2023-06-14T15:53:14;100553.97;;;30.24;70.34
51299;BME280;37382;45.192;9.790;2023-06-14T15:55:42;100564.03;;;31.99;63.92
51299;BME280;37382;45.192;9.790;2023-06-14T15:58:10;100562.69;;;34.77;56.27
51299;BME280;37382;45.192;9.790;2023-06-14T16:00:38;100557.34;;;36.28;51.73
51299;BME280;37382;45.192;9.790;2023-06-14T16:03:06;100557.06;;;33.85;57.85
51299;BME280;37382;45.192;9.790;2023-06-14T16:05:34;100564.56;;;36.49;51.58
51299;BME280;37382;45.192;9.790;2023-06-14T16:08:02;100562.63;;;36.30;50.85
51299;BME280;37382;45.192;9.790;2023-06-14T16:10:31;100561.25;;;37.24;49.65
51299;BME280;37382;45.192;9.790;2023-06-14T16:12:59;100559.16;;;37.81;46.03
51299;BME280;37382;45.192;9.790;2023-06-14T16:15:27;100557.09;;;37.17;45.96
51299;BME280;37382;45.192;9.790;2023-06-14T16:17:54;100560.56;;;38.02;44.24
51299;BME280;37382;45.192;9.790;2023-06-14T16:20:22;100562.03;;;39.44;42.53
51299;BME280;37382;45.192;9.790;2023-06-14T16:22:49;100566.03;;;35.96;47.30
51299;BME280;37382;45.192;9.790;2023-06-14T16:25:17;100570.91;;;37.49;46.09
51299;BME280;37382;45.192;9.790;2023-06-14T16:27:46;100578.38;;;37.04;46.70
51299;BME280;37382;45.192;9.790;2023-06-14T16:30:15;100570.06;;;37.18;45.96
51299;BME280;37382;45.192;9.790;2023-06-14T16:32:44;100569.56;;;40.39;41.61
51299;BME280;37382;45.192;9.790;2023-06-14T16:35:11;100575.16;;;41.33;39.83
51299;BME280;37382;45.192;9.790;2023-06-14T16:37:39;100574.84;;;40.41;39.69
51299;BME280;37382;45.192;9.790;2023-06-14T16:40:07;100571.50;;;38.93;42.36
51299;BME280;37382;45.192;9.790;2023-06-14T16:42:35;100563.44;;;40.12;40.19
51299;BME280;37382;45.192;9.790;2023-06-14T16:45:03;100567.94;;;40.02;40.16
51299;BME280;37382;45.192;9.790;2023-06-14T16:47:31;100567.94;;;40.60;38.49
51299;BME280;37382;45.192;9.790;2023-06-14T16:49:59;100568.97;;;42.23;36.57
51299;BME280;37382;45.192;9.790;2023-06-14T16:52:26;100580.94;;;42.59;35.43
51299;BME280;37382;45.192;9.790;2023-06-14T16:54:54;100582.09;;;42.06;35.76
51299;BME280;37382;45.192;9.790;2023-06-14T16:57:22;100594.72;;;37.41;42.11
51299;BME280;37382;45.192;9.790;2023-06-14T16:59:49;100588.63;;;38.11;40.90
51299;BME280;37382;45.192;9.790;2023-06-14T17:02:17;100594.66;;;36.57;43.77
51299;BME280;37382;45.192;9.790;2023-06-14T17:04:44;100590.75;;;34.38;48.39
51299;BME280;37382;45.192;9.790;2023-06-14T17:07:12;100589.53;;;36.20;44.59
51299;BME280;37382;45.192;9.790;2023-06-14T17:09:40;100597.66;;;35.98;44.29
51299;BME280;37382;45.192;9.790;2023-06-14T17:12:07;100594.69;;;37.37;43.21